Time;durP1;ratioP1;P1;durP2;ratioP2;P2;SDS_P1;SDS_P2;PMS_P1;PMS_P2;Temp;Humidity;BMP_temperature;BMP_pressure;BME280_temperature;BME280_humidity;BME280_pressure;Samples;Min_cycle;Max_cycle;Signal;HPM_P1;HPM_P2
2023/05/13 00:00:40;;;;;;;9.33;7.80;;;;;;;;;;5034094;28;20480;-78
2023/05/13 00:03:07;;;;;;;11.17;9.03;;;;;;;;;;5035468;28;20473;-79
2023/05/13 00:05:33;;;;;;;11.43;8.43;;;;;;;;;;5033098;28;20468;-78
2023/05/13 00:08:00;;;;;;;9.70;7.90;;;;;;;;;;5031475;28;20481;-78
2023/05/13 00:10:27;;;;;;;11.10;8.30;;;;;;;;;;5035239;28;20417;-78
2023/05/13 00:12:53;;;;;;;11.07;9.57;;;;;;;;;;5025548;28;20476;-78
2023/05/13 00:15:21;;;;;;;10.63;9.40;;;;;;;;;;5034694;28;20492;-79
2023/05/13 00:17:47;;;;;;;10.17;8.80;;;;;;;;;;5033195;28;20451;-79
2023/05/13 00:20:13;;;;;;;10.60;9.27;;;;;;;;;;5032714;28;20982;-78
2023/05/13 00:22:40;;;;;;;9.47;8.60;;;;;;;;;;5034016;28;20451;-79
2023/05/13 00:25:06;;;;;;;10.97;9.33;;;;;;;;;;5032044;28;20439;-79
2023/05/13 00:27:33;;;;;;;8.93;8.13;;;;;;;;;;5030575;28;20542;-78
2023/05/13 00:29:59;;;;;;;13.53;9.23;;;;;;;;;;5034920;28;20440;-80
2023/05/13 00:32:27;;;;;;;9.83;8.83;;;;;;;;;;5032638;28;20477;-79
2023/05/13 00:34:54;;;;;;;9.93;8.90;;;;;;;;;;5031925;28;20444;-78
2023/05/13 00:37:21;;;;;;;10.20;9.20;;;;;;;;;;5034344;28;20515;-78
2023/05/13 00:39:47;;;;;;;9.93;8.93;;;;;;;;;;5032966;28;20445;-78
2023/05/13 00:42:14;;;;;;;9.10;8.27;;;;;;;;;;5032658;28;20473;-78
2023/05/13 00:44:41;;;;;;;11.20;9.53;;;;;;;;;;5030354;28;20480;-77
2023/05/13 00:47:07;;;;;;;11.17;10.10;;;;;;;;;;5032801;28;20454;-80
2023/05/13 00:49:35;;;;;;;13.33;9.43;;;;;;;;;;5028666;28;20991;-80
2023/05/13 00:52:03;;;;;;;11.20;9.40;;;;;;;;;;5023850;28;20454;-78
2023/05/13 00:54:29;;;;;;;11.13;9.87;;;;;;;;;;5029946;28;20828;-80
2023/05/13 00:56:57;;;;;;;9.97;8.97;;;;;;;;;;5033239;28;20476;-78
2023/05/13 00:59:24;;;;;;;10.37;9.13;;;;;;;;;;5034404;28;20444;-78
2023/05/13 01:01:54;;;;;;;11.70;10.20;;;;;;;;;;5026848;28;20487;-80
2023/05/13 01:04:24;;;;;;;10.10;9.10;;;;;;;;;;5026513;28;20488;-80
2023/05/13 01:06:56;;;;;;;12.20;10.10;;;;;;;;;;5026013;28;20477;-79
2023/05/13 01:09:29;;;;;;;11.23;10.03;;;;;;;;;;5027757;28;20459;-80
2023/05/13 01:11:55;;;;;;;11.57;10.43;;;;;;;;;;5032888;28;20476;-80
2023/05/13 01:14:24;;;;;;;10.73;9.43;;;;;;;;;;5033509;28;20481;-78
2023/05/13 01:16:55;;;;;;;10.77;9.63;;;;;;;;;;5029250;28;20834;-78
2023/05/13 01:19:26;;;;;;;11.57;10.37;;;;;;;;;;5033953;28;20437;-79
2023/05/13 01:21:54;;;;;;;12.73;10.10;;;;;;;;;;5024751;28;20483;-80
2023/05/13 01:24:21;;;;;;;11.43;10.23;;;;;;;;;;5033476;28;20480;-80
2023/05/13 01:26:48;;;;;;;11.53;9.50;;;;;;;;;;5013820;28;20483;-78
2023/05/13 01:29:14;;;;;;;11.93;10.77;;;;;;;;;;5032568;28;20468;-79
2023/05/13 01:31:41;;;;;;;11.53;9.23;;;;;;;;;;5029052;28;20480;-80
2023/05/13 01:34:09;;;;;;;11.60;9.37;;;;;;;;;;5027568;28;20994;-78
2023/05/13 01:36:35;;;;;;;12.00;9.40;;;;;;;;;;5032624;28;20472;-79
2023/05/13 01:39:03;;;;;;;12.30;9.40;;;;;;;;;;5032858;28;20499;-80
2023/05/13 01:41:30;;;;;;;12.00;10.07;;;;;;;;;;5035469;28;20565;-80
2023/05/13 01:43:56;;;;;;;9.60;8.70;;;;;;;;;;5033065;28;20840;-80
2023/05/13 01:46:22;;;;;;;10.83;8.93;;;;;;;;;;5030273;28;20470;-80
2023/05/13 01:48:49;;;;;;;13.70;9.83;;;;;;;;;;5024269;28;20982;-80
2023/05/13 01:51:15;;;;;;;12.40;10.23;;;;;;;;;;5030434;28;20464;-79
2023/05/13 01:53:42;;;;;;;11.07;10.03;;;;;;;;;;5032666;28;20451;-80
2023/05/13 01:56:10;;;;;;;10.63;9.50;;;;;;;;;;5026934;28;20457;-80
2023/05/13 01:58:36;;;;;;;10.03;9.13;;;;;;;;;;5032665;28;20460;-79
2023/05/13 02:01:03;;;;;;;12.83;10.57;;;;;;;;;;5031600;28;20548;-80
2023/05/13 02:03:29;;;;;;;10.10;9.20;;;;;;;;;;5022059;28;20483;-78
2023/05/13 02:05:56;;;;;;;11.33;10.13;;;;;;;;;;5032039;28;21011;-78
2023/05/13 02:08:24;;;;;;;14.00;10.27;;;;;;;;;;5032695;28;20448;-80
2023/05/13 02:10:54;;;;;;;10.80;9.80;;;;;;;;;;5025067;28;20445;-80
2023/05/13 02:13:22;;;;;;;9.60;8.80;;;;;;;;;;5032343;28;20544;-78
2023/05/13 02:15:48;;;;;;;11.80;10.17;;;;;;;;;;5013851;28;20631;-80
2023/05/13 02:18:15;;;;;;;12.57;10.47;;;;;;;;;;5029954;28;20445;-79
2023/05/13 02:20:41;;;;;;;14.03;11.20;;;;;;;;;;5032609;28;21016;-80
2023/05/13 02:23:07;;;;;;;11.97;10.77;;;;;;;;;;5029823;28;20473;-80
2023/05/13 02:25:34;;;;;;;10.87;9.83;;;;;;;;;;5032849;28;20460;-78
2023/05/13 02:28:01;;;;;;;11.17;10.13;;;;;;;;;;5026460;28;20844;-80
2023/05/13 02:30:28;;;;;;;10.30;9.30;;;;;;;;;;5029582;28;20449;-80
2023/05/13 02:32:55;;;;;;;11.57;10.40;;;;;;;;;;5029764;28;20472;-80
2023/05/13 02:35:23;;;;;;;13.20;10.27;;;;;;;;;;5031379;28;20974;-79
2023/05/13 02:37:49;;;;;;;12.10;10.63;;;;;;;;;;5029145;28;20476;-78
2023/05/13 02:40:16;;;;;;;11.87;10.77;;;;;;;;;;5033094;28;20457;-80
2023/05/13 02:42:43;;;;;;;11.07;10.07;;;;;;;;;;5021686;28;20481;-79
2023/05/13 02:45:10;;;;;;;13.10;10.90;;;;;;;;;;5032048;28;20474;-79
2023/05/13 02:47:38;;;;;;;12.97;10.33;;;;;;;;;;5010543;28;20473;-79
2023/05/13 02:50:06;;;;;;;13.13;11.30;;;;;;;;;;5032349;28;20461;-80
2023/05/13 02:52:34;;;;;;;12.37;11.07;;;;;;;;;;5030365;28;21001;-80
2023/05/13 02:55:01;;;;;;;11.13;10.13;;;;;;;;;;5031856;28;20556;-80
2023/05/13 02:57:27;;;;;;;11.03;9.97;;;;;;;;;;5031528;28;20476;-80
2023/05/13 03:02:21;;;;;;;13.83;10.57;;;;;;;;;;5049320;28;20495;-83
2023/05/13 03:04:49;;;;;;;12.17;10.70;;;;;;;;;;5052534;28;20494;-83
2023/05/13 03:07:15;;;;;;;12.30;11.00;;;;;;;;;;5042567;28;20472;-83
2023/05/13 03:09:41;;;;;;;11.73;10.57;;;;;;;;;;5052678;28;20825;-83
2023/05/13 03:12:08;;;;;;;12.83;11.00;;;;;;;;;;5044842;28;20517;-83
2023/05/13 03:14:35;;;;;;;11.10;10.00;;;;;;;;;;5050313;28;20457;-83
2023/05/13 03:17:02;;;;;;;11.00;9.90;;;;;;;;;;5037867;28;20488;-83
2023/05/13 03:19:29;;;;;;;11.87;10.07;;;;;;;;;;5057138;28;20979;-83
2023/05/13 03:21:57;;;;;;;11.03;10.00;;;;;;;;;;5052125;28;20480;-83
2023/05/13 03:24:23;;;;;;;10.17;9.33;;;;;;;;;;5047560;28;20464;-83
2023/05/13 03:26:50;;;;;;;12.90;11.70;;;;;;;;;;5050522;28;20476;-83
2023/05/13 03:29:16;;;;;;;11.03;9.77;;;;;;;;;;5070310;28;20466;-83
2023/05/13 03:31:42;;;;;;;10.90;9.80;;;;;;;;;;5056795;28;20474;-83
2023/05/13 03:34:09;;;;;;;15.73;12.03;;;;;;;;;;5036151;28;20447;-83
2023/05/13 03:36:35;;;;;;;14.23;10.90;;;;;;;;;;5055579;28;20483;-83
2023/05/13 03:39:03;;;;;;;16.33;10.57;;;;;;;;;;5056362;28;20446;-83
2023/05/13 03:41:29;;;;;;;13.60;11.93;;;;;;;;;;5055503;28;20480;-83
2023/05/13 03:43:55;;;;;;;11.87;10.67;;;;;;;;;;5055248;28;20455;-83
2023/05/13 03:46:22;;;;;;;12.97;11.77;;;;;;;;;;5053824;28;20467;-83
2023/05/13 03:48:48;;;;;;;12.33;11.30;;;;;;;;;;5054435;28;20455;-83
2023/05/13 03:51:14;;;;;;;14.63;11.50;;;;;;;;;;5051695;28;20488;-83
2023/05/13 03:53:41;;;;;;;11.60;10.27;;;;;;;;;;5048057;28;20444;-83
2023/05/13 03:56:09;;;;;;;16.17;10.80;;;;;;;;;;5055084;28;20471;-83
2023/05/13 03:58:35;;;;;;;13.90;11.60;;;;;;;;;;5052175;28;20448;-83
2023/05/13 04:01:02;;;;;;;12.13;11.10;;;;;;;;;;5053826;28;20913;-83
2023/05/13 04:03:28;;;;;;;12.53;10.67;;;;;;;;;;5054363;28;20451;-83
2023/05/13 04:05:54;;;;;;;13.63;12.03;;;;;;;;;;5048032;28;20467;-83
2023/05/13 04:08:21;;;;;;;13.23;11.93;;;;;;;;;;5045426;28;20447;-83
2023/05/13 04:10:47;;;;;;;15.50;11.33;;;;;;;;;;5037112;28;20525;-83
2023/05/13 04:13:15;;;;;;;12.07;10.97;;;;;;;;;;5055489;28;20448;-83
2023/05/13 04:15:41;;;;;;;12.30;10.10;;;;;;;;;;5045645;28;20453;-83
2023/05/13 04:18:07;;;;;;;11.90;10.57;;;;;;;;;;5048461;28;20480;-83
2023/05/13 04:20:34;;;;;;;12.80;11.50;;;;;;;;;;5048407;28;20482;-83
2023/05/13 04:23:00;;;;;;;13.83;10.37;;;;;;;;;;5056299;28;20486;-83
2023/05/13 04:25:27;;;;;;;11.80;10.67;;;;;;;;;;5051946;28;20519;-83
2023/05/13 04:27:53;;;;;;;18.43;12.10;;;;;;;;;;5052290;28;20514;-83
2023/05/13 04:30:21;;;;;;;18.33;12.27;;;;;;;;;;5036523;28;20472;-83
2023/05/13 04:32:47;;;;;;;13.07;11.77;;;;;;;;;;5043518;28;20993;-84
2023/05/13 04:35:14;;;;;;;12.40;10.20;;;;;;;;;;5048290;28;20453;-83
2023/05/13 04:37:40;;;;;;;12.80;11.50;;;;;;;;;;5024076;28;20519;-83
2023/05/13 04:40:07;;;;;;;14.53;10.60;;;;;;;;;;5053609;28;20460;-83
2023/05/13 04:42:34;;;;;;;17.50;10.57;;;;;;;;;;5052763;28;20980;-83
2023/05/13 04:45:00;;;;;;;12.93;11.70;;;;;;;;;;5053677;28;20452;-83
2023/05/13 04:47:28;;;;;;;11.97;10.70;;;;;;;;;;5042734;28;21019;-84
2023/05/13 04:49:54;;;;;;;13.90;12.50;;;;;;;;;;5050792;28;20455;-83
2023/05/13 04:52:20;;;;;;;12.77;10.70;;;;;;;;;;5054500;28;20490;-83
2023/05/13 04:54:47;;;;;;;13.57;11.50;;;;;;;;;;5051740;28;20463;-83
2023/05/13 04:57:13;;;;;;;14.60;11.17;;;;;;;;;;5051155;28;20479;-83
2023/05/13 04:59:39;;;;;;;20.60;12.70;;;;;;;;;;5044210;28;20449;-83
2023/05/13 05:02:06;;;;;;;14.40;11.73;;;;;;;;;;5053124;28;20844;-83
2023/05/13 05:04:33;;;;;;;16.37;12.57;;;;;;;;;;5053486;28;20448;-83
2023/05/13 05:07:00;;;;;;;18.00;13.20;;;;;;;;;;5052195;28;20470;-83
2023/05/13 05:09:26;;;;;;;14.23;12.53;;;;;;;;;;5039603;28;20459;-83
2023/05/13 05:11:53;;;;;;;15.07;12.77;;;;;;;;;;5050306;28;20525;-84
2023/05/13 05:14:19;;;;;;;14.90;11.53;;;;;;;;;;5049181;28;20447;-83
2023/05/13 05:16:46;;;;;;;15.60;12.77;;;;;;;;;;5044323;28;20510;-83
2023/05/13 05:19:12;;;;;;;12.70;11.40;;;;;;;;;;5045197;28;20456;-83
2023/05/13 05:21:40;;;;;;;12.20;11.00;;;;;;;;;;5047606;28;20486;-83
2023/05/13 05:24:06;;;;;;;15.43;13.10;;;;;;;;;;5037875;28;20452;-83
2023/05/13 05:26:33;;;;;;;12.87;11.27;;;;;;;;;;5050402;28;20479;-83
2023/05/13 05:28:59;;;;;;;13.67;11.40;;;;;;;;;;5050159;28;20459;-83
2023/05/13 05:31:26;;;;;;;12.60;11.10;;;;;;;;;;5050705;28;20842;-83
2023/05/13 05:33:52;;;;;;;13.97;12.43;;;;;;;;;;5030565;28;20503;-83
2023/05/13 05:36:18;;;;;;;19.60;11.97;;;;;;;;;;5052125;28;20466;-83
2023/05/13 05:38:46;;;;;;;12.50;11.20;;;;;;;;;;5054052;28;20456;-83
2023/05/13 05:41:13;;;;;;;12.07;10.87;;;;;;;;;;5056182;28;20466;-84
2023/05/13 05:43:39;;;;;;;16.23;10.20;;;;;;;;;;5052966;28;20452;-83
2023/05/13 05:46:06;;;;;;;18.30;11.43;;;;;;;;;;5053245;28;20826;-83
2023/05/13 05:48:32;;;;;;;11.50;9.27;;;;;;;;;;5045691;28;20454;-83
2023/05/13 05:50:58;;;;;;;12.67;10.50;;;;;;;;;;5048102;28;20467;-83
2023/05/13 05:53:25;;;;;;;10.70;9.40;;;;;;;;;;5046704;28;20451;-83
2023/05/13 05:55:52;;;;;;;12.83;10.70;;;;;;;;;;5047763;28;20954;-83
2023/05/13 05:58:19;;;;;;;11.27;9.57;;;;;;;;;;5035154;28;20451;-83
2023/05/13 06:00:45;;;;;;;10.47;9.57;;;;;;;;;;5053115;28;20476;-84
2023/05/13 06:03:12;;;;;;;11.60;10.20;;;;;;;;;;5052198;28;20839;-83
2023/05/13 06:05:38;;;;;;;13.83;10.53;;;;;;;;;;5047474;28;20800;-83
2023/05/13 06:08:05;;;;;;;11.83;9.37;;;;;;;;;;5047757;28;20459;-83
2023/05/13 06:10:31;;;;;;;11.03;9.00;;;;;;;;;;5052854;28;20474;-83
2023/05/13 06:12:59;;;;;;;10.30;8.13;;;;;;;;;;5047536;28;20482;-81
2023/05/13 06:15:25;;;;;;;9.80;8.87;;;;;;;;;;5047658;28;20524;-80
2023/05/13 06:17:53;;;;;;;10.23;8.63;;;;;;;;;;5049311;28;20469;-80
2023/05/13 06:20:19;;;;;;;12.93;8.00;;;;;;;;;;5044394;28;20450;-81
2023/05/13 06:22:46;;;;;;;14.33;8.60;;;;;;;;;;5052011;28;20848;-81
2023/05/13 06:25:13;;;;;;;10.40;9.40;;;;;;;;;;5050586;28;20466;-80
2023/05/13 06:27:39;;;;;;;10.43;8.03;;;;;;;;;;5052469;28;20468;-81
2023/05/13 06:30:09;;;;;;;9.87;7.40;;;;;;;;;;5054386;28;20451;-81
2023/05/13 06:32:35;;;;;;;8.43;7.63;;;;;;;;;;5035152;28;20458;-81
2023/05/13 06:35:02;;;;;;;12.43;9.10;;;;;;;;;;5051565;28;20448;-82
2023/05/13 06:37:28;;;;;;;14.13;7.40;;;;;;;;;;5047054;28;20453;-80
2023/05/13 06:39:54;;;;;;;9.23;8.13;;;;;;;;;;5052465;28;20425;-80
2023/05/13 06:42:21;;;;;;;10.13;8.47;;;;;;;;;;5053147;28;20996;-80
2023/05/13 06:44:47;;;;;;;17.53;7.30;;;;;;;;;;5053829;28;20446;-80
2023/05/13 06:47:15;;;;;;;8.07;7.27;;;;;;;;;;5053122;28;20480;-81
2023/05/13 06:49:41;;;;;;;9.60;8.67;;;;;;;;;;5049059;28;20431;-81
2023/05/13 06:52:08;;;;;;;11.20;8.70;;;;;;;;;;5048562;28;20454;-81
2023/05/13 06:54:34;;;;;;;10.20;8.93;;;;;;;;;;5053636;28;20476;-80
2023/05/13 06:57:02;;;;;;;10.27;7.77;;;;;;;;;;5052838;28;20447;-80
2023/05/13 06:59:29;;;;;;;9.10;8.20;;;;;;;;;;5052240;28;20442;-80
2023/05/13 07:01:55;;;;;;;8.50;6.50;;;;;;;;;;5052836;28;20480;-80
2023/05/13 07:04:23;;;;;;;8.50;7.30;;;;;;;;;;5048689;28;20419;-80
2023/05/13 07:06:50;;;;;;;9.57;7.43;;;;;;;;;;5056871;28;20477;-80
2023/05/13 07:09:16;;;;;;;7.80;7.00;;;;;;;;;;5052713;28;20426;-81
2023/05/13 07:11:43;;;;;;;8.33;7.50;;;;;;;;;;5050236;28;20457;-80
2023/05/13 07:14:09;;;;;;;10.20;8.23;;;;;;;;;;5054264;28;20444;-82
2023/05/13 07:16:35;;;;;;;9.00;7.73;;;;;;;;;;5056831;28;20464;-82
2023/05/13 07:19:02;;;;;;;11.60;7.70;;;;;;;;;;5056861;28;20447;-81
2023/05/13 07:21:29;;;;;;;7.43;6.57;;;;;;;;;;5047645;28;20479;-80
2023/05/13 07:23:56;;;;;;;8.10;7.30;;;;;;;;;;5054336;28;20479;-80
2023/05/13 07:26:22;;;;;;;8.40;7.60;;;;;;;;;;5045005;28;20832;-80
2023/05/13 07:28:50;;;;;;;9.33;7.00;;;;;;;;;;5056942;28;20454;-80
2023/05/13 07:31:16;;;;;;;6.90;6.10;;;;;;;;;;5051063;28;20471;-80
2023/05/13 07:33:42;;;;;;;11.50;7.17;;;;;;;;;;5033869;28;20495;-81
2023/05/13 07:36:09;;;;;;;9.30;6.50;;;;;;;;;;5048993;28;20467;-80
2023/05/13 07:38:36;;;;;;;7.00;6.30;;;;;;;;;;5053478;28;20450;-80
2023/05/13 07:41:03;;;;;;;7.93;6.17;;;;;;;;;;5055485;28;20472;-80
2023/05/13 07:43:29;;;;;;;15.27;6.70;;;;;;;;;;5056105;28;20483;-80
2023/05/13 07:45:55;;;;;;;7.57;6.77;;;;;;;;;;5053329;28;20452;-80
2023/05/13 07:48:23;;;;;;;7.63;5.27;;;;;;;;;;5048965;28;20829;-80
2023/05/13 07:50:49;;;;;;;7.63;5.57;;;;;;;;;;5054905;28;20471;-80
2023/05/13 07:53:16;;;;;;;7.00;5.40;;;;;;;;;;5055458;28;20444;-80
2023/05/13 07:55:43;;;;;;;6.03;5.20;;;;;;;;;;5047286;28;20460;-80
2023/05/13 07:58:10;;;;;;;6.63;6.03;;;;;;;;;;5055473;28;20491;-80
2023/05/13 08:00:36;;;;;;;6.97;6.03;;;;;;;;;;5056756;28;20566;-80
2023/05/13 08:03:02;;;;;;;6.03;5.43;;;;;;;;;;5056270;28;20480;-81
2023/05/13 08:05:29;;;;;;;8.10;6.50;;;;;;;;;;5056982;28;20440;-80
2023/05/13 08:07:55;;;;;;;6.00;5.40;;;;;;;;;;5053670;28;20479;-80
2023/05/13 08:10:21;;;;;;;6.90;6.10;;;;;;;;;;5057014;28;20487;-80
2023/05/13 08:12:56;;;;;;;6.97;5.70;;;;;;;;;;5056784;28;20468;-81
2023/05/13 08:15:23;;;;;;;8.20;5.80;;;;;;;;;;5054100;28;20867;-81
2023/05/13 08:17:50;;;;;;;9.27;5.90;;;;;;;;;;5055887;28;20543;-80
2023/05/13 08:20:16;;;;;;;8.43;6.27;;;;;;;;;;5057311;28;20525;-80
2023/05/13 08:22:43;;;;;;;6.83;5.60;;;;;;;;;;5056451;28;20851;-80
2023/05/13 08:25:10;;;;;;;5.33;4.63;;;;;;;;;;5051002;28;20441;-81
2023/05/13 08:27:36;;;;;;;6.23;4.83;;;;;;;;;;5048712;28;20472;-80
2023/05/13 08:30:05;;;;;;;5.80;5.10;;;;;;;;;;5053527;28;20464;-80
2023/05/13 08:32:31;;;;;;;7.13;5.23;;;;;;;;;;5051736;28;20850;-81
2023/05/13 08:34:58;;;;;;;5.80;4.83;;;;;;;;;;5060683;28;20460;-80
2023/05/13 08:37:24;;;;;;;5.90;5.20;;;;;;;;;;5052206;28;20479;-82
2023/05/13 08:39:50;;;;;;;5.87;5.10;;;;;;;;;;5056672;28;20452;-80
2023/05/13 08:42:20;;;;;;;11.00;5.50;;;;;;;;;;5038252;28;20889;-80
2023/05/13 08:44:46;;;;;;;12.77;6.17;;;;;;;;;;5052882;28;20451;-80
2023/05/13 08:47:20;;;;;;;10.10;5.67;;;;;;;;;;5056598;28;20487;-80
2023/05/13 08:49:47;;;;;;;6.87;5.30;;;;;;;;;;5050999;28;20445;-81
2023/05/13 08:52:14;;;;;;;8.70;4.57;;;;;;;;;;5052566;28;21081;-81
2023/05/13 08:54:40;;;;;;;6.70;5.10;;;;;;;;;;5049297;28;20444;-80
2023/05/13 08:57:07;;;;;;;6.80;4.80;;;;;;;;;;5045555;28;20855;-81
2023/05/13 08:59:33;;;;;;;5.83;5.07;;;;;;;;;;5047050;28;20964;-81
2023/05/13 09:02:02;;;;;;;6.87;5.60;;;;;;;;;;5083742;22;20455;-79
2023/05/13 09:04:29;;;;;;;7.27;5.33;;;;;;;;;;5073719;28;20570;-79
2023/05/13 09:06:56;;;;;;;5.37;4.87;;;;;;;;;;5073090;28;21023;-79
2023/05/13 09:09:23;;;;;;;7.03;5.10;;;;;;;;;;5073547;28;20948;-79
2023/05/13 09:11:50;;;;;;;6.73;5.60;;;;;;;;;;5064074;28;20475;-79
2023/05/13 09:14:18;;;;;;;6.77;5.27;;;;;;;;;;5062329;28;20443;-79
2023/05/13 09:16:45;;;;;;;6.40;5.13;;;;;;;;;;5061814;28;20474;-79
2023/05/13 09:19:12;;;;;;;5.13;4.50;;;;;;;;;;5059205;28;20963;-79
2023/05/13 09:21:40;;;;;;;5.30;4.77;;;;;;;;;;5068424;28;21049;-79
2023/05/13 09:24:07;;;;;;;6.10;5.00;;;;;;;;;;5060627;28;20514;-79
2023/05/13 09:26:34;;;;;;;9.00;4.77;;;;;;;;;;5053254;28;20494;-79
2023/05/13 09:29:16;;;;;;;16.47;5.40;;;;;;;;;;5050398;28;20444;-79
2023/05/13 09:31:43;;;;;;;6.73;4.93;;;;;;;;;;5051635;28;20474;-79
2023/05/13 09:34:09;;;;;;;7.77;4.87;;;;;;;;;;5053746;28;20446;-79
2023/05/13 09:36:37;;;;;;;6.23;4.70;;;;;;;;;;5057169;28;20988;-79
2023/05/13 09:39:05;;;;;;;5.10;4.60;;;;;;;;;;5062051;28;20478;-79
2023/05/13 09:41:31;;;;;;;7.23;4.90;;;;;;;;;;5057337;28;20475;-79
2023/05/13 09:43:58;;;;;;;6.80;5.17;;;;;;;;;;5055900;28;20476;-79
2023/05/13 09:46:24;;;;;;;8.37;4.93;;;;;;;;;;5064263;28;20984;-79
2023/05/13 09:48:55;;;;;;;8.33;5.67;;;;;;;;;;5048563;28;20448;-79
2023/05/13 09:51:25;;;;;;;7.20;5.33;;;;;;;;;;5062788;28;20565;-79
2023/05/13 09:53:51;;;;;;;12.17;5.87;;;;;;;;;;5061804;28;20455;-79
2023/05/13 09:56:22;;;;;;;7.63;6.10;;;;;;;;;;5055704;28;20459;-79
2023/05/13 09:58:51;;;;;;;5.97;5.03;;;;;;;;;;5052466;28;20451;-79
2023/05/13 10:01:17;;;;;;;7.10;4.83;;;;;;;;;;5060249;28;20985;-79
2023/05/13 10:03:43;;;;;;;6.73;6.03;;;;;;;;;;5061016;28;20491;-78
2023/05/13 10:06:10;;;;;;;9.90;6.77;;;;;;;;;;5058506;28;20471;-77
2023/05/13 10:08:37;;;;;;;8.20;5.90;;;;;;;;;;5064554;28;20450;-78
2023/05/13 10:11:05;;;;;;;9.13;5.10;;;;;;;;;;5052208;28;20867;-77
2023/05/13 10:13:33;;;;;;;15.63;6.27;;;;;;;;;;5064233;28;20455;-78
2023/05/13 10:16:00;;;;;;;10.40;5.23;;;;;;;;;;5060213;28;20464;-78
2023/05/13 10:18:27;;;;;;;6.53;5.77;;;;;;;;;;5055398;28;20470;-78
2023/05/13 10:20:54;;;;;;;6.10;5.10;;;;;;;;;;5057990;28;20462;-78
2023/05/13 10:23:21;;;;;;;5.90;5.30;;;;;;;;;;5063228;28;20483;-78
2023/05/13 10:25:48;;;;;;;7.40;6.17;;;;;;;;;;5058715;28;20452;-78
2023/05/13 10:28:15;;;;;;;6.63;5.50;;;;;;;;;;5051865;28;20883;-78
2023/05/13 10:30:43;;;;;;;12.40;5.43;;;;;;;;;;5056641;28;20444;-78
2023/05/13 10:33:10;;;;;;;7.27;6.07;;;;;;;;;;5068125;28;20530;-78
2023/05/13 10:35:37;;;;;;;6.40;5.63;;;;;;;;;;5059992;28;20452;-77
2023/05/13 10:38:06;;;;;;;6.33;5.70;;;;;;;;;;5057740;28;20553;-78
2023/05/13 10:40:53;;;;;;;5.77;5.17;;;;;;;;;;5046317;28;20456;-78
2023/05/13 10:43:20;;;;;;;8.83;5.67;;;;;;;;;;5041654;28;20467;-79
2023/05/13 10:45:49;;;;;;;7.60;6.07;;;;;;;;;;5061108;28;20554;-79
2023/05/13 10:48:16;;;;;;;6.00;5.50;;;;;;;;;;5067510;28;20474;-77
2023/05/13 10:50:50;;;;;;;6.07;5.43;;;;;;;;;;5063766;28;20952;-76
2023/05/13 10:53:19;;;;;;;12.30;5.03;;;;;;;;;;5060451;28;21044;-77
2023/05/13 10:55:45;;;;;;;8.43;5.97;;;;;;;;;;5062929;28;20444;-78
2023/05/13 10:58:12;;;;;;;9.10;6.30;;;;;;;;;;5064236;28;20443;-77
2023/05/13 11:00:39;;;;;;;6.40;5.63;;;;;;;;;;5070034;28;20817;-78
2023/05/13 11:03:11;;;;;;;7.10;6.27;;;;;;;;;;5058044;28;21049;-78
2023/05/13 11:05:38;;;;;;;11.73;5.40;;;;;;;;;;5070266;28;20521;-79
2023/05/13 11:08:05;;;;;;;7.93;6.50;;;;;;;;;;5056592;28;20471;-78
2023/05/13 11:10:31;;;;;;;9.50;7.00;;;;;;;;;;5061044;28;20550;-79
2023/05/13 11:13:24;;;;;;;9.20;6.00;;;;;;;;;;5061170;28;20482;-78
2023/05/13 11:15:55;;;;;;;7.30;6.17;;;;;;;;;;5035782;28;20962;-77
2023/05/13 11:18:30;;;;;;;6.67;6.07;;;;;;;;;;5066893;28;20439;-77
2023/05/13 11:21:02;;;;;;;6.50;5.93;;;;;;;;;;5055631;28;20886;-78
2023/05/13 11:23:28;;;;;;;6.27;5.67;;;;;;;;;;5060737;28;20471;-77
2023/05/13 11:26:11;;;;;;;6.57;5.97;;;;;;;;;;5061498;28;20451;-78
2023/05/13 11:28:54;;;;;;;7.23;5.47;;;;;;;;;;5063676;28;20503;-77
2023/05/13 11:31:21;;;;;;;11.20;7.07;;;;;;;;;;5046004;28;20520;-77
2023/05/13 11:34:02;;;;;;;9.43;6.03;;;;;;;;;;5061596;28;20489;-78
2023/05/13 11:36:30;;;;;;;8.53;5.03;;;;;;;;;;5055655;28;20474;-77
2023/05/13 11:39:07;;;;;;;7.70;5.50;;;;;;;;;;5069146;28;20448;-78
2023/05/13 11:41:35;;;;;;;11.77;6.10;;;;;;;;;;5067639;28;20553;-78
2023/05/13 11:44:02;;;;;;;8.57;7.27;;;;;;;;;;5064160;28;21007;-78
2023/05/13 11:46:29;;;;;;;8.50;5.63;;;;;;;;;;5062157;28;20850;-78
2023/05/13 11:48:55;;;;;;;8.07;5.63;;;;;;;;;;5060979;28;20451;-77
2023/05/13 11:51:21;;;;;;;8.70;5.30;;;;;;;;;;5054884;28;20468;-79
2023/05/13 11:53:49;;;;;;;6.93;5.07;;;;;;;;;;5062716;28;20445;-77
2023/05/13 11:56:17;;;;;;;8.30;6.13;;;;;;;;;;5064363;28;20534;-79
2023/05/13 11:58:44;;;;;;;5.63;5.13;;;;;;;;;;5067722;28;20485;-80
2023/05/13 12:01:13;;;;;;;6.73;5.40;;;;;;;;;;5063203;28;20464;-79
2023/05/13 12:03:40;;;;;;;7.97;6.60;;;;;;;;;;5058471;28;20487;-79
2023/05/13 12:06:07;;;;;;;6.20;5.57;;;;;;;;;;5064462;28;20984;-79
2023/05/13 12:08:33;;;;;;;5.43;4.93;;;;;;;;;;5066014;28;20455;-79
2023/05/13 12:11:01;;;;;;;5.60;4.97;;;;;;;;;;5065909;28;20450;-79
2023/05/13 12:13:27;;;;;;;8.10;5.23;;;;;;;;;;5061223;28;20464;-77
2023/05/13 12:15:54;;;;;;;7.77;5.20;;;;;;;;;;5062015;28;20451;-80
2023/05/13 12:18:20;;;;;;;8.73;5.37;;;;;;;;;;5064687;28;20839;-80
2023/05/13 12:20:47;;;;;;;6.90;5.50;;;;;;;;;;5061740;28;20451;-78
2023/05/13 12:23:14;;;;;;;10.37;5.20;;;;;;;;;;5058105;28;20449;-78
2023/05/13 12:25:41;;;;;;;6.83;6.03;;;;;;;;;;5051133;28;20887;-77
2023/05/13 12:28:10;;;;;;;7.87;5.40;;;;;;;;;;5065076;28;20860;-76
2023/05/13 12:30:38;;;;;;;6.30;4.97;;;;;;;;;;5063114;28;20865;-77
2023/05/13 12:33:05;;;;;;;5.60;4.93;;;;;;;;;;5061078;28;20495;-78
2023/05/13 12:35:31;;;;;;;5.90;5.40;;;;;;;;;;5066446;28;20467;-77
2023/05/13 12:38:01;;;;;;;7.93;5.50;;;;;;;;;;5059008;28;20483;-78
2023/05/13 12:40:28;;;;;;;12.20;6.00;;;;;;;;;;5067734;28;20455;-78
2023/05/13 12:42:56;;;;;;;6.43;5.10;;;;;;;;;;5063882;28;20490;-77
2023/05/13 12:45:25;;;;;;;6.73;5.27;;;;;;;;;;5062373;28;21005;-77
2023/05/13 12:47:52;;;;;;;7.07;5.00;;;;;;;;;;5062783;28;20475;-77
2023/05/13 12:50:19;;;;;;;6.40;5.07;;;;;;;;;;5050037;28;20448;-78
2023/05/13 12:52:45;;;;;;;5.80;5.30;;;;;;;;;;5061644;28;20475;-77
2023/05/13 12:55:12;;;;;;;7.03;5.47;;;;;;;;;;5059100;28;20440;-78
2023/05/13 12:57:40;;;;;;;5.97;5.43;;;;;;;;;;5064308;28;20468;-78
2023/05/13 13:00:08;;;;;;;7.50;4.90;;;;;;;;;;5061015;28;20840;-77
2023/05/13 13:02:36;;;;;;;5.77;4.83;;;;;;;;;;5065081;28;20463;-77
2023/05/13 13:05:02;;;;;;;6.37;4.70;;;;;;;;;;5064890;28;20494;-77
2023/05/13 13:07:29;;;;;;;9.23;5.50;;;;;;;;;;5062504;28;20467;-77
2023/05/13 13:09:56;;;;;;;6.10;4.90;;;;;;;;;;5061860;28;20941;-77
2023/05/13 13:12:22;;;;;;;9.80;6.03;;;;;;;;;;5058437;28;20467;-77
2023/05/13 13:14:48;;;;;;;5.67;4.60;;;;;;;;;;5056491;28;20456;-78
2023/05/13 13:17:15;;;;;;;6.90;5.00;;;;;;;;;;5058111;28;20468;-78
2023/05/13 13:19:42;;;;;;;5.63;5.00;;;;;;;;;;5061233;28;20451;-77
2023/05/13 13:22:09;;;;;;;5.00;4.50;;;;;;;;;;5048803;28;20468;-78
2023/05/13 13:24:35;;;;;;;5.90;5.17;;;;;;;;;;5067786;28;20482;-77
2023/05/13 13:27:02;;;;;;;6.23;4.80;;;;;;;;;;5060082;28;20472;-78
2023/05/13 13:29:28;;;;;;;5.70;5.20;;;;;;;;;;5065638;28;20455;-77
2023/05/13 13:31:55;;;;;;;7.63;5.40;;;;;;;;;;5059557;28;20478;-78
2023/05/13 13:34:21;;;;;;;5.77;5.33;;;;;;;;;;5052926;28;20452;-77
2023/05/13 13:36:49;;;;;;;5.87;5.47;;;;;;;;;;5048747;28;20478;-78
2023/05/13 13:39:15;;;;;;;5.67;4.67;;;;;;;;;;5057026;28;20450;-77
2023/05/13 13:41:42;;;;;;;6.03;5.43;;;;;;;;;;5062194;28;20471;-78
2023/05/13 13:44:08;;;;;;;6.20;5.20;;;;;;;;;;5055322;28;20557;-77
2023/05/13 13:46:34;;;;;;;6.37;5.77;;;;;;;;;;5064146;28;20475;-78
2023/05/13 13:49:00;;;;;;;6.90;5.93;;;;;;;;;;5061814;28;20838;-77
2023/05/13 13:51:27;;;;;;;5.10;4.60;;;;;;;;;;5056921;28;20542;-77
2023/05/13 13:53:54;;;;;;;5.43;4.93;;;;;;;;;;5061257;28;20820;-77
2023/05/13 13:56:21;;;;;;;7.30;5.00;;;;;;;;;;5062763;28;20838;-78
2023/05/13 13:58:47;;;;;;;5.97;4.70;;;;;;;;;;5052386;28;20456;-77
2023/05/13 14:01:14;;;;;;;7.10;5.50;;;;;;;;;;5050539;28;21018;-78
2023/05/13 14:03:40;;;;;;;6.20;4.70;;;;;;;;;;5059900;28;20793;-79
2023/05/13 14:06:07;;;;;;;5.87;5.27;;;;;;;;;;5069026;28;20471;-77
2023/05/13 14:08:34;;;;;;;5.33;4.67;;;;;;;;;;5063084;28;20987;-79
2023/05/13 14:11:03;;;;;;;6.00;4.70;;;;;;;;;;5060471;28;20432;-79
2023/05/13 14:13:29;;;;;;;5.57;5.00;;;;;;;;;;5056936;28;20952;-78
2023/05/13 14:15:55;;;;;;;5.67;5.17;;;;;;;;;;5065697;28;20443;-78
2023/05/13 14:18:22;;;;;;;4.90;4.50;;;;;;;;;;5066051;28;20964;-77
2023/05/13 14:20:49;;;;;;;5.03;4.70;;;;;;;;;;5059709;28;20448;-78
2023/05/13 14:23:15;;;;;;;5.47;5.07;;;;;;;;;;5060829;28;20853;-78
2023/05/13 14:25:41;;;;;;;6.37;5.20;;;;;;;;;;5055305;28;20491;-77
2023/05/13 14:28:10;;;;;;;5.30;4.60;;;;;;;;;;5059626;28;20468;-78
2023/05/13 14:30:36;;;;;;;5.93;4.60;;;;;;;;;;5059568;28;20474;-77
2023/05/13 14:33:03;;;;;;;7.60;4.83;;;;;;;;;;5060957;28;20476;-78
2023/05/13 14:35:29;;;;;;;5.00;4.60;;;;;;;;;;5064002;28;20446;-77